Time;durP1;ratioP1;P1;durP2;ratioP2;P2;SDS_P1;SDS_P2;PMS_P1;PMS_P2;Temp;Humidity;BMP_temperature;BMP_pressure;BME280_temperature;BME280_humidity;BME280_pressure;Samples;Min_cycle;Max_cycle;Signal;HPM_P1;HPM_P2
2022/01/09 00:01:37;;;;;;;6.93;4.80;;;5.80;99.90;;;;;;5045067;28;20134;-87
2022/01/09 00:04:03;;;;;;;7.57;4.80;;;5.90;99.90;;;;;;5041443;28;20033;-88
2022/01/09 00:06:29;;;;;;;7.10;4.82;;;5.90;99.90;;;;;;5040612;28;20025;-88
2022/01/09 00:09:13;;;;;;;9.13;5.75;;;5.90;99.90;;;;;;5060772;28;20534;-84
2022/01/09 00:12:01;;;;;;;11.75;6.65;;;6.00;99.90;;;;;;5040189;28;20481;-85
2022/01/09 00:14:41;;;;;;;8.93;6.15;;;6.00;99.90;;;;;;4998382;28;20037;-85
2022/01/09 00:17:29;;;;;;;8.85;6.00;;;6.00;99.90;;;;;;5039879;28;20041;-85
2022/01/09 00:20:18;;;;;;;9.63;6.60;;;6.00;99.90;;;;;;4995796;28;20042;-85
2022/01/09 00:23:23;;;;;;;9.93;6.70;;;6.00;99.90;;;;;;4979918;28;20042;-85
2022/01/09 00:26:26;;;;;;;9.23;6.07;;;6.10;99.90;;;;;;4963085;28;20023;-85
2022/01/09 00:32:31;;;;;;;8.40;6.78;;;6.10;99.90;;;;;;4951299;29;20102;-88
2022/01/09 00:35:00;;;;;;;8.25;5.93;;;6.10;99.90;;;;;;4956307;29;20027;-87
2022/01/09 00:37:26;;;;;;;11.10;6.65;;;6.10;99.90;;;;;;4957896;29;20035;-88
2022/01/09 00:43:35;;;;;;;9.90;6.13;;;6.10;99.90;;;;;;4958738;29;20122;-88
2022/01/09 00:46:29;;;;;;;7.80;5.60;;;6.10;99.90;;;;;;4958882;29;20043;-87
2022/01/09 00:48:55;;;;;;;8.35;5.80;;;6.00;99.90;;;;;;4922686;29;20040;-87
2022/01/09 00:51:55;;;;;;;8.57;5.75;;;6.00;99.90;;;;;;4964928;28;20057;-88
2022/01/09 00:54:36;;;;;;;8.52;6.10;;;6.00;99.90;;;;;;4971862;28;20104;-87
2022/01/09 00:57:12;;;;;;;8.60;6.20;;;6.00;99.90;;;;;;5020209;28;20033;-88
2022/01/09 00:59:44;;;;;;;9.95;6.47;;;6.00;99.90;;;;;;5003110;28;20033;-88
2022/01/09 01:02:29;;;;;;;11.60;6.45;;;6.00;99.90;;;;;;5011229;28;20102;-87
2022/01/09 01:05:13;;;;;;;16.55;8.40;;;6.00;99.90;;;;;;5038615;28;20045;-87
2022/01/09 01:08:26;;;;;;;19.23;8.68;;;6.00;99.90;;;;;;5050467;28;20052;-88
2022/01/09 01:10:58;;;;;;;8.48;6.18;;;6.00;99.90;;;;;;4969838;28;20035;-89
2022/01/09 01:13:29;;;;;;;10.32;6.50;;;6.00;99.90;;;;;;4973301;28;20023;-88
2022/01/09 01:15:56;;;;;;;12.27;7.38;;;6.00;99.90;;;;;;4971860;28;20030;-89
2022/01/09 01:18:27;;;;;;;9.60;6.93;;;6.00;99.90;;;;;;4963511;28;20047;-88
2022/01/09 01:27:24;;;;;;;10.50;6.68;;;6.10;99.90;;;;;;4919567;29;20116;-88
2022/01/09 01:29:51;;;;;;;9.05;5.40;;;6.10;99.90;;;;;;4903344;29;20101;-88
2022/01/09 01:32:17;;;;;;;10.30;5.72;;;6.10;99.90;;;;;;4903223;29;20096;-88
2022/01/09 01:34:54;;;;;;;11.35;5.47;;;6.10;99.90;;;;;;4902706;29;20362;-89
2022/01/09 01:37:23;;;;;;;10.43;5.03;;;6.10;99.90;;;;;;4902125;29;20052;-89
2022/01/09 01:39:49;;;;;;;12.27;4.43;;;6.10;99.90;;;;;;4902267;29;20044;-89
2022/01/09 01:42:18;;;;;;;13.98;4.15;;;6.20;99.90;;;;;;4902029;29;20143;-89
2022/01/09 01:45:22;;;;;;;13.88;4.22;;;6.20;99.90;;;;;;4901955;29;20039;-89
2022/01/09 01:48:05;;;;;;;17.05;4.22;;;6.20;99.90;;;;;;4974543;28;20115;-88
2022/01/09 01:50:37;;;;;;;16.30;3.60;;;6.20;99.90;;;;;;5022777;28;20128;-88
2022/01/09 01:53:23;;;;;;;24.05;4.25;;;6.20;99.90;;;;;;5031728;28;20041;-88
2022/01/09 01:56:04;;;;;;;20.40;3.97;;;6.20;99.90;;;;;;5057790;28;20049;-88
2022/01/09 01:58:43;;;;;;;;;;;6.30;99.90;;;;;;5055198;28;20049;-88
2022/01/09 02:01:29;;;;;;;;;;;;;;;;;;;;;
2022/01/09 02:04:23;;;;;;;26.60;4.88;;;6.30;99.90;;;;;;5027943;28;20029;-88
2022/01/09 02:06:51;;;;;;;34.53;4.82;;;6.30;99.90;;;;;;4974688;28;20055;-88
2022/01/09 02:09:30;;;;;;;28.77;3.80;;;6.30;99.90;;;;;;4974542;28;20452;-89
2022/01/09 02:11:59;;;;;;;27.05;2.95;;;6.30;99.90;;;;;;5016933;28;20037;-89
2022/01/09 02:14:51;;;;;;;22.10;3.03;;;6.30;99.90;;;;;;5037436;28;20068;-89
2022/01/09 02:17:24;;;;;;;26.60;3.70;;;6.30;99.90;;;;;;4996930;28;20030;-89
2022/01/09 02:20:06;;;;;;;29.98;3.88;;;6.30;99.90;;;;;;4996966;28;20483;-89
2022/01/09 02:22:39;;;;;;;31.20;4.72;;;6.30;99.90;;;;;;4976443;28;20050;-88
2022/01/09 02:25:14;;;;;;;35.95;4.82;;;6.30;99.90;;;;;;5010494;28;20030;-89
2022/01/09 02:27:44;;;;;;;43.72;5.43;;;6.30;99.90;;;;;;5013422;28;20102;-88
2022/01/09 02:30:16;;;;;;;57.47;7.20;;;6.40;99.90;;;;;;4999126;28;20036;-88
2022/01/09 02:32:43;;;;;;;55.13;7.00;;;6.40;99.90;;;;;;5053990;28;20108;-88
2022/01/09 02:35:10;;;;;;;58.22;6.80;;;6.50;99.90;;;;;;5036417;28;20095;-89
2022/01/09 02:37:47;;;;;;;53.08;6.63;;;6.50;99.90;;;;;;5034958;28;20029;-87
2022/01/09 02:40:13;;;;;;;51.58;5.82;;;6.50;99.90;;;;;;5051505;28;20102;-85
2022/01/09 02:42:47;;;;;;;51.47;6.93;;;6.50;99.90;;;;;;5034864;28;20517;-85
2022/01/09 02:48:22;;;;;;;53.30;6.43;;;6.60;99.90;;;;;;5052978;28;20039;-86
2022/01/09 02:51:07;;;;;;;54.97;6.38;;;6.60;99.90;;;;;;5018507;28;20064;-86
2022/01/09 02:56:51;;;;;;;52.92;5.65;;;6.60;99.90;;;;;;5024312;28;20049;-86
2022/01/09 02:59:57;;;;;;;52.83;6.05;;;6.60;99.90;;;;;;5021077;28;20033;-89
2022/01/09 03:02:57;;;;;;;54.05;6.03;;;6.60;99.90;;;;;;5039313;28;20075;-88
2022/01/09 03:05:29;;;;;;;49.47;6.17;;;6.60;99.90;;;;;;5008732;28;20033;-89
2022/01/09 03:08:37;;;;;;;47.47;5.78;;;6.60;99.90;;;;;;5055796;28;20280;-89
2022/01/09 03:11:10;;;;;;;47.47;5.38;;;6.60;99.90;;;;;;5055393;28;20040;-88
2022/01/09 03:14:12;;;;;;;40.40;5.93;;;6.60;99.90;;;;;;5066012;28;20104;-88
2022/01/09 03:16:38;;;;;;;39.83;5.10;;;6.70;99.90;;;;;;5045562;28;20183;-89
2022/01/09 03:19:05;;;;;;;49.42;4.47;;;6.70;99.90;;;;;;5032674;28;20025;-88
2022/01/09 03:21:32;;;;;;;48.97;6.28;;;6.70;99.90;;;;;;5040676;28;20199;-88
2022/01/09 03:24:05;;;;;;;46.67;5.03;;;6.70;99.90;;;;;;5053831;28;20017;-89
2022/01/09 03:26:52;;;;;;;51.72;5.88;;;6.70;99.90;;;;;;5037741;28;20041;-86
2022/01/09 03:29:54;;;;;;;40.08;5.50;;;6.70;99.90;;;;;;5044515;28;20029;-85
2022/01/09 03:32:29;;;;;;;50.55;4.82;;;6.70;99.90;;;;;;5009303;28;20032;-86
2022/01/09 03:38:46;;;;;;;41.05;5.45;;;6.70;99.90;;;;;;5073407;28;20085;-86
2022/01/09 03:41:21;;;;;;;45.08;5.88;;;6.70;99.90;;;;;;5043717;28;20123;-86
2022/01/09 03:44:05;;;;;;;41.53;5.22;;;6.70;99.90;;;;;;5043730;28;20039;-86
2022/01/09 03:46:43;;;;;;;51.85;5.22;;;6.70;99.90;;;;;;5043643;28;20469;-88
2022/01/09 03:49:25;;;;;;;39.28;5.07;;;6.70;99.90;;;;;;5043266;28;20036;-86
2022/01/09 03:51:52;;;;;;;48.47;5.40;;;6.70;99.90;;;;;;5043255;28;20054;-87
2022/01/09 03:54:23;;;;;;;28.35;3.83;;;6.70;99.90;;;;;;5043562;28;20037;-89
2022/01/09 03:56:52;;;;;;;43.90;4.93;;;6.70;99.90;;;;;;5063677;28;20051;-89
2022/01/09 03:59:29;;;;;;;58.72;6.03;;;6.70;99.90;;;;;;5079977;28;20035;-86
2022/01/09 04:02:22;;;;;;;39.10;5.28;;;6.70;99.90;;;;;;5078919;28;20074;-88
2022/01/09 04:04:48;;;;;;;38.67;5.47;;;6.70;99.90;;;;;;5078873;28;20039;-88
2022/01/09 04:07:15;;;;;;;40.53;5.85;;;6.70;99.90;;;;;;5063137;28;20115;-88
2022/01/09 04:09:50;;;;;;;34.33;5.18;;;6.70;99.90;;;;;;5063276;28;20032;-88
2022/01/09 04:12:19;;;;;;;39.13;4.38;;;6.70;99.90;;;;;;5078462;28;20040;-87
2022/01/09 04:14:54;;;;;;;39.72;4.95;;;6.70;99.90;;;;;;5094861;28;20047;-86
2022/01/09 04:17:36;;;;;;;36.58;5.28;;;6.70;99.90;;;;;;5063676;28;20032;-86
2022/01/09 04:20:10;;;;;;;42.25;5.78;;;6.70;99.90;;;;;;5077013;28;20044;-86
2022/01/09 04:22:36;;;;;;;34.17;5.20;;;6.70;99.90;;;;;;5065178;28;20024;-88
2022/01/09 04:25:08;;;;;;;39.80;4.95;;;6.70;99.90;;;;;;5046155;28;20063;-88
2022/01/09 04:28:15;;;;;;;41.70;4.75;;;6.70;99.90;;;;;;5062850;28;20078;-88
2022/01/09 04:30:49;;;;;;;33.58;3.85;;;6.70;99.90;;;;;;5095704;28;20435;-89
2022/01/09 04:33:19;;;;;;;35.53;4.60;;;6.60;99.90;;;;;;5088310;28;20059;-88
2022/01/09 04:35:48;;;;;;;34.45;4.47;;;6.70;99.90;;;;;;5046161;28;20032;-88
2022/01/09 04:38:15;;;;;;;51.67;5.75;;;6.60;99.90;;;;;;5047776;28;20040;-87
2022/01/09 04:40:42;;;;;;;32.30;4.05;;;6.60;99.90;;;;;;5064199;28;20036;-88
2022/01/09 04:43:16;;;;;;;30.15;4.40;;;6.60;99.90;;;;;;5081047;28;20024;-88
2022/01/09 04:45:58;;;;;;;31.70;5.00;;;6.60;99.90;;;;;;5052077;28;20036;-86
2022/01/09 04:49:06;;;;;;;33.75;3.88;;;6.60;99.90;;;;;;5052961;28;20052;-88
2022/01/09 04:51:39;;;;;;;20.85;3.60;;;6.50;99.90;;;;;;5078841;28;20378;-88
2022/01/09 04:54:05;;;;;;;34.38;3.67;;;6.50;99.90;;;;;;5045468;28;20032;-88
2022/01/09 04:56:37;;;;;;;28.48;4.10;;;6.50;99.90;;;;;;5041904;28;20071;-86
2022/01/09 04:59:08;;;;;;;35.40;3.45;;;6.50;99.90;;;;;;5042760;28;20124;-86
2022/01/09 05:01:54;;;;;;;24.13;3.72;;;6.50;99.90;;;;;;5026182;28;20477;-86
2022/01/09 05:04:19;;;;;;;30.30;3.58;;;6.50;99.90;;;;;;5043091;28;20029;-87
2022/01/09 05:06:57;;;;;;;27.30;3.53;;;6.50;99.90;;;;;;5043815;28;20504;-86
2022/01/09 05:12:38;;;;;;;19.70;3.22;;;6.50;99.90;;;;;;4951098;29;20528;-86
2022/01/09 05:15:26;;;;;;;24.30;3.70;;;6.40;99.90;;;;;;5037775;28;20037;-85
2022/01/09 05:17:57;;;;;;;29.60;3.90;;;6.40;99.90;;;;;;5050803;28;20040;-86
2022/01/09 05:20:24;;;;;;;28.00;4.28;;;6.50;99.90;;;;;;5059258;28;20029;-86
2022/01/09 05:22:53;;;;;;;26.58;3.95;;;6.50;99.90;;;;;;5056809;28;20032;-86
2022/01/09 05:25:20;;;;;;;23.05;3.55;;;6.40;99.90;;;;;;5025611;28;20033;-86
2022/01/09 05:27:47;;;;;;;22.70;3.47;;;6.40;99.90;;;;;;5041412;28;20040;-86
2022/01/09 05:30:14;;;;;;;29.60;3.42;;;6.40;99.90;;;;;;5041575;28;20120;-86
2022/01/09 05:32:40;;;;;;;24.02;4.55;;;6.40;99.90;;;;;;5024996;28;20040;-86
2022/01/09 05:35:30;;;;;;;23.30;3.50;;;6.30;99.90;;;;;;5042035;28;20467;-87
2022/01/09 05:37:58;;;;;;;27.85;3.97;;;6.30;99.90;;;;;;5042144;28;20064;-88
2022/01/09 05:40:24;;;;;;;18.17;2.75;;;6.30;99.90;;;;;;5058413;28;20050;-87
2022/01/09 05:42:51;;;;;;;30.05;3.97;;;6.30;99.90;;;;;;5026367;28;20124;-87
2022/01/09 05:45:19;;;;;;;24.20;4.07;;;6.20;99.90;;;;;;5042168;28;20032;-88
2022/01/09 05:47:52;;;;;;;25.08;5.13;;;6.20;99.90;;;;;;5059398;28;20362;-88
2022/01/09 05:50:25;;;;;;;28.98;3.05;;;6.20;99.90;;;;;;5058082;28;20124;-86
2022/01/09 05:52:53;;;;;;;29.23;3.55;;;6.20;99.90;;;;;;5042461;28;20047;-86
2022/01/09 05:55:20;;;;;;;24.90;3.72;;;6.20;99.90;;;;;;5058114;28;20041;-85
2022/01/09 05:57:46;;;;;;;28.80;3.55;;;6.20;99.90;;;;;;5057369;28;20047;-85
2022/01/09 06:00:18;;;;;;;19.92;3.47;;;6.20;99.90;;;;;;5056885;28;20021;-86
2022/01/09 06:02:46;;;;;;;24.45;3.58;;;6.20;99.90;;;;;;5024017;28;20036;-86
2022/01/09 06:05:17;;;;;;;26.75;3.33;;;6.20;99.90;;;;;;5027990;28;20057;-86
2022/01/09 06:07:43;;;;;;;28.85;4.32;;;6.20;99.90;;;;;;5037749;28;20511;-86
2022/01/09 06:10:10;;;;;;;24.70;3.47;;;6.20;99.90;;;;;;5098382;23;20444;-90
2022/01/09 06:12:36;;;;;;;18.45;2.83;;;6.20;99.90;;;;;;5058414;28;20032;-90
2022/01/09 06:15:03;;;;;;;34.75;3.78;;;6.20;99.90;;;;;;5074400;28;20091;-89
2022/01/09 06:17:28;;;;;;;18.85;2.95;;;6.20;99.90;;;;;;5074225;28;20048;-89
2022/01/09 06:19:54;;;;;;;18.42;4.15;;;6.20;99.90;;;;;;5057445;28;20468;-89
2022/01/09 06:22:21;;;;;;;28.30;3.20;;;6.20;99.90;;;;;;5041233;28;20036;-89
2022/01/09 06:24:50;;;;;;;30.48;4.90;;;6.20;99.90;;;;;;5057562;28;20041;-89
2022/01/09 06:27:17;;;;;;;27.88;4.53;;;6.20;99.90;;;;;;5074876;28;20108;-91
2022/01/09 06:29:43;;;;;;;22.48;2.85;;;6.20;99.90;;;;;;5074173;28;20032;-90
2022/01/09 06:32:08;;;;;;;22.50;3.80;;;6.10;99.90;;;;;;5073962;28;20101;-92
2022/01/09 06:34:34;;;;;;;24.83;3.38;;;6.10;99.90;;;;;;5057182;28;20098;-89
2022/01/09 06:37:00;;;;;;;22.58;2.83;;;6.10;99.90;;;;;;5057155;28;20044;-89
2022/01/09 06:39:25;;;;;;;17.90;2.95;;;6.10;99.90;;;;;;5040251;28;20056;-87
2022/01/09 06:41:51;;;;;;;21.80;4.30;;;6.10;99.90;;;;;;5040354;28;20048;-89
2022/01/09 06:44:17;;;;;;;21.27;3.40;;;6.10;99.90;;;;;;5040310;28;20492;-89
2022/01/09 06:46:43;;;;;;;20.92;2.97;;;6.10;99.90;;;;;;5073734;28;20028;-89
2022/01/09 06:49:09;;;;;;;21.02;2.80;;;6.10;99.90;;;;;;5040118;28;20127;-89
2022/01/09 06:51:35;;;;;;;24.73;3.85;;;6.00;99.90;;;;;;5073359;28;20048;-89
2022/01/09 06:54:01;;;;;;;21.30;3.50;;;6.00;99.90;;;;;;5056476;28;20507;-89
2022/01/09 06:56:26;;;;;;;15.75;2.97;;;6.00;99.90;;;;;;5056467;28;20484;-89
2022/01/09 06:58:52;;;;;;;16.25;2.55;;;6.00;99.90;;;;;;5056983;28;20496;-90
2022/01/09 07:01:17;;;;;;;24.23;3.10;;;6.00;99.90;;;;;;5073385;28;20132;-90
2022/01/09 07:03:43;;;;;;;22.23;4.35;;;5.90;99.90;;;;;;5073862;28;20048;-90
2022/01/09 07:06:09;;;;;;;21.00;3.08;;;5.90;99.90;;;;;;5056672;28;20044;-89
2022/01/09 07:08:35;;;;;;;19.00;3.30;;;5.90;99.90;;;;;;5059524;28;20109;-89
2022/01/09 07:11:03;;;;;;;24.25;3.60;;;5.90;99.90;;;;;;5043286;28;20043;-89
2022/01/09 07:13:28;;;;;;;19.42;3.55;;;5.90;99.90;;;;;;5079205;28;20039;-89
2022/01/09 07:15:54;;;;;;;21.48;3.38;;;5.90;99.90;;;;;;5080797;28;20039;-89
2022/01/09 07:18:20;;;;;;;19.23;3.10;;;5.90;99.90;;;;;;5084339;28;20060;-89
2022/01/09 07:20:45;;;;;;;20.42;3.00;;;5.80;99.90;;;;;;5108056;28;20044;-90
2022/01/09 07:23:11;;;;;;;21.73;2.95;;;5.80;99.90;;;;;;5094679;28;20036;-89
2022/01/09 07:25:37;;;;;;;19.42;4.45;;;5.80;99.90;;;;;;5096597;28;20032;-89
2022/01/09 07:28:03;;;;;;;16.50;3.75;;;5.80;99.90;;;;;;5097269;28;20056;-89
2022/01/09 07:30:29;;;;;;;13.60;3.22;;;5.80;99.90;;;;;;5112052;28;20111;-90
2022/01/09 07:32:56;;;;;;;20.38;3.42;;;5.80;99.90;;;;;;5078204;28;20107;-90
2022/01/09 07:35:22;;;;;;;20.38;4.90;;;5.80;99.90;;;;;;5095825;28;20032;-89
2022/01/09 07:37:48;;;;;;;20.83;3.85;;;5.80;99.90;;;;;;5068849;28;20036;-90
2022/01/09 07:40:14;;;;;;;22.45;5.43;;;5.80;99.90;;;;;;5064972;28;20028;-89
2022/01/09 07:42:39;;;;;;;17.35;3.97;;;5.80;99.90;;;;;;5063363;28;20476;-90
2022/01/09 07:45:09;;;;;;;14.15;3.50;;;5.80;99.90;;;;;;5063706;28;20028;-89
2022/01/09 07:47:36;;;;;;;18.00;2.88;;;5.80;99.90;;;;;;5098119;28;20123;-90
2022/01/09 07:50:05;;;;;;;15.80;3.03;;;5.70;99.90;;;;;;5063658;28;20085;-89
2022/01/09 07:52:35;;;;;;;14.73;2.83;;;5.70;99.90;;;;;;5080523;28;20051;-90
2022/01/09 07:55:02;;;;;;;17.83;2.88;;;5.70;99.90;;;;;;5080911;28;20070;-88
2022/01/09 07:57:28;;;;;;;17.95;2.83;;;5.70;99.90;;;;;;5080237;28;20039;-88
2022/01/09 07:59:56;;;;;;;14.10;3.47;;;5.70;99.90;;;;;;5079945;28;20032;-89
2022/01/09 08:02:22;;;;;;;15.02;3.03;;;5.70;99.90;;;;;;5063247;28;20415;-89
2022/01/09 08:04:48;;;;;;;20.27;3.42;;;5.60;99.90;;;;;;5063590;28;20040;-89
2022/01/09 08:07:13;;;;;;;10.77;2.53;;;5.60;99.90;;;;;;5062840;28;20036;-89
2022/01/09 08:09:40;;;;;;;10.35;1.95;;;5.60;99.90;;;;;;5075944;28;20051;-89
2022/01/09 08:12:08;;;;;;;16.33;2.25;;;5.60;99.90;;;;;;5059690;28;20048;-89
2022/01/09 08:14:34;;;;;;;13.10;1.92;;;5.60;99.90;;;;;;5076242;28;20060;-88
2022/01/09 08:17:00;;;;;;;16.83;2.55;;;5.60;99.90;;;;;;5076215;28;20062;-89
2022/01/09 08:19:25;;;;;;;16.52;2.75;;;5.50;99.90;;;;;;5042568;28;20091;-88
2022/01/09 08:21:51;;;;;;;11.90;2.47;;;5.50;99.90;;;;;;5043038;28;20048;-90
2022/01/09 08:24:17;;;;;;;14.05;2.40;;;5.50;99.90;;;;;;5042515;28;20055;-89
2022/01/09 08:26:43;;;;;;;12.38;2.40;;;5.50;99.90;;;;;;5042736;28;20086;-89
2022/01/09 08:29:09;;;;;;;14.25;2.97;;;5.50;99.90;;;;;;5076174;28;20432;-89
2022/01/09 08:31:34;;;;;;;9.63;2.75;;;5.50;99.90;;;;;;5076822;28;20043;-89
2022/01/09 08:34:00;;;;;;;15.23;2.50;;;5.60;99.90;;;;;;5059489;28;20059;-89
2022/01/09 08:36:26;;;;;;;13.23;3.20;;;5.50;99.90;;;;;;5058779;28;20072;-90
2022/01/09 08:38:51;;;;;;;17.20;2.90;;;5.60;99.90;;;;;;5059085;28;20048;-89
2022/01/09 08:41:17;;;;;;;17.25;3.58;;;5.60;99.90;;;;;;5059255;28;20047;-89
2022/01/09 08:43:43;;;;;;;15.77;4.25;;;5.60;99.90;;;;;;5077021;28;20341;-88
2022/01/09 08:46:09;;;;;;;18.67;2.88;;;5.60;99.90;;;;;;5058960;28;20040;-89
2022/01/09 08:48:34;;;;;;;14.60;3.00;;;5.60;99.90;;;;;;5076677;28;20029;-88
2022/01/09 08:51:01;;;;;;;14.32;4.15;;;5.60;99.90;;;;;;5075395;28;20468;-89
2022/01/09 08:53:26;;;;;;;12.95;3.22;;;5.70;99.90;;;;;;5075142;28;20025;-90
2022/01/09 08:55:52;;;;;;;19.40;2.83;;;5.70;99.90;;;;;;5075337;28;20395;-89
2022/01/09 08:58:18;;;;;;;10.70;2.80;;;5.70;99.90;;;;;;5075341;28;20075;-89
2022/01/09 09:00:43;;;;;;;12.23;2.75;;;5.70;99.90;;;;;;5058556;28;20036;-89
2022/01/09 09:03:10;;;;;;;16.33;2.83;;;5.70;99.90;;;;;;5058694;28;20473;-89
2022/01/09 09:05:37;;;;;;;13.57;2.22;;;5.70;99.90;;;;;;5075255;28;20029;-89
2022/01/09 09:08:03;;;;;;;18.98;2.78;;;5.70;99.90;;;;;;5076579;28;20086;-89
2022/01/09 09:10:29;;;;;;;12.48;2.35;;;5.70;99.90;;;;;;5078206;28;20480;-89
2022/01/09 09:12:54;;;;;;;15.38;2.22;;;5.80;99.90;;;;;;5078824;28;20043;-88
2022/01/09 09:15:22;;;;;;;9.07;2.17;;;5.70;99.90;;;;;;5079188;28;20089;-89
2022/01/09 09:17:47;;;;;;;14.65;2.67;;;5.80;99.90;;;;;;5096585;28;20303;-88
2022/01/09 09:20:13;;;;;;;11.27;2.00;;;5.80;99.90;;;;;;5061190;28;20111;-88
2022/01/09 09:22:40;;;;;;;12.65;2.50;;;5.80;99.90;;;;;;5061391;28;20036;-89
2022/01/09 09:25:06;;;;;;;16.40;3.22;;;5.80;99.90;;;;;;5061929;28;20070;-89
2022/01/09 09:27:32;;;;;;;10.85;2.90;;;5.80;99.90;;;;;;5078086;28;20032;-89
2022/01/09 09:30:01;;;;;;;13.70;2.35;;;5.80;99.90;;;;;;5077961;28;20135;-88
2022/01/09 09:32:27;;;;;;;9.85;2.67;;;5.80;99.90;;;;;;5095912;28;20047;-88
2022/01/09 09:34:52;;;;;;;11.00;3.10;;;5.90;99.90;;;;;;5060351;28;20044;-88
2022/01/09 09:37:20;;;;;;;13.60;3.20;;;5.90;99.90;;;;;;5077899;28;20074;-89
2022/01/09 09:39:48;;;;;;;17.02;3.33;;;5.90;99.90;;;;;;5077698;28;20145;-88
2022/01/09 09:42:15;;;;;;;14.30;2.65;;;6.00;99.90;;;;;;5061484;28;20085;-89
2022/01/09 09:44:40;;;;;;;17.60;3.30;;;6.00;99.90;;;;;;5077629;28;20490;-89
2022/01/09 09:47:07;;;;;;;14.98;2.78;;;6.00;99.90;;;;;;5061112;28;20036;-88
2022/01/09 09:49:33;;;;;;;17.58;3.20;;;6.10;99.90;;;;;;5077351;28;20055;-89
2022/01/09 09:51:58;;;;;;;13.68;3.50;;;6.10;99.90;;;;;;5061170;28;20488;-89
2022/01/09 09:54:25;;;;;;;15.50;3.17;;;6.10;99.90;;;;;;5077529;28;20041;-88
2022/01/09 09:56:52;;;;;;;15.35;3.38;;;6.10;99.90;;;;;;5095475;28;20111;-88
2022/01/09 09:59:34;;;;;;;18.70;3.33;;;6.10;99.90;;;;;;5061534;28;20039;-88
2022/01/09 10:02:00;;;;;;;11.25;2.97;;;6.10;99.90;;;;;;5062482;28;20039;-88
2022/01/09 10:04:25;;;;;;;12.80;2.70;;;6.20;99.90;;;;;;5078116;28;20028;-88
2022/01/09 10:06:51;;;;;;;15.27;2.63;;;6.10;99.90;;;;;;5092153;28;20024;-88
2022/01/09 10:09:22;;;;;;;13.00;2.67;;;6.20;99.90;;;;;;5087948;28;20472;-89
2022/01/09 10:11:53;;;;;;;16.77;3.50;;;6.20;99.90;;;;;;5077380;28;20568;-89
2022/01/09 10:14:24;;;;;;;20.33;3.92;;;6.20;99.90;;;;;;5075476;28;20428;-88
2022/01/09 10:17:16;;;;;;;15.27;2.70;;;6.20;99.90;;;;;;5073872;28;20037;-89
2022/01/09 10:19:51;;;;;;;18.40;3.20;;;6.20;99.90;;;;;;5056734;28;20388;-89
2022/01/09 10:22:32;;;;;;;14.00;4.13;;;6.20;99.90;;;;;;5074115;28;20036;-90
2022/01/09 10:25:15;;;;;;;17.17;3.40;;;6.20;99.90;;;;;;5073879;28;20154;-88
2022/01/09 10:27:40;;;;;;;19.17;3.55;;;6.20;99.90;;;;;;5059227;28;20063;-91
2022/01/09 10:30:07;;;;;;;14.93;3.08;;;6.20;99.90;;;;;;5056960;28;20036;-88
2022/01/09 10:32:33;;;;;;;14.10;2.63;;;6.20;99.90;;;;;;5040186;28;20032;-90
2022/01/09 10:35:15;;;;;;;14.18;3.05;;;6.20;99.90;;;;;;5074439;28;20075;-89
2022/01/09 10:37:44;;;;;;;14.90;2.85;;;6.20;99.90;;;;;;5056378;28;20029;-88
2022/01/09 10:40:18;;;;;;;16.23;3.65;;;6.20;99.90;;;;;;5073290;28;20033;-88
2022/01/09 10:42:44;;;;;;;16.15;3.28;;;6.30;99.90;;;;;;5073650;28;20036;-88
2022/01/09 10:45:18;;;;;;;10.52;2.60;;;6.30;99.90;;;;;;5056863;28;20040;-91
2022/01/09 10:47:44;;;;;;;18.33;3.72;;;6.30;99.90;;;;;;5068719;28;20070;-90
2022/01/09 10:50:10;;;;;;;17.65;3.10;;;6.40;99.90;;;;;;5073401;28;20384;-90
2022/01/09 10:52:41;;;;;;;13.02;3.13;;;6.40;99.90;;;;;;5064979;28;20477;-91
2022/01/09 10:55:08;;;;;;;21.27;3.35;;;6.50;99.90;;;;;;5051895;28;20389;-88
2022/01/09 10:57:37;;;;;;;11.82;2.65;;;6.50;99.90;;;;;;5051001;28;20413;-88
2022/01/09 11:00:15;;;;;;;15.52;3.47;;;6.50;99.90;;;;;;5051192;28;20134;-87
2022/01/09 11:02:41;;;;;;;16.67;3.65;;;6.50;99.90;;;;;;5054051;28;20044;-87
2022/01/09 11:05:07;;;;;;;14.18;2.88;;;6.50;99.90;;;;;;5054397;28;20116;-86
2022/01/09 11:07:33;;;;;;;21.80;4.22;;;6.50;99.90;;;;;;5062528;28;20036;-86
2022/01/09 11:10:00;;;;;;;18.20;3.00;;;6.50;99.90;;;;;;5070253;28;20060;-87
2022/01/09 11:12:33;;;;;;;14.60;2.95;;;6.60;99.90;;;;;;5073409;28;20059;-87
2022/01/09 11:15:00;;;;;;;19.45;4.03;;;6.60;99.90;;;;;;5088271;28;20032;-88
2022/01/09 11:17:27;;;;;;;14.98;3.40;;;6.70;99.90;;;;;;5088827;28;20063;-88
2022/01/09 11:19:53;;;;;;;15.30;3.55;;;6.70;99.90;;;;;;5089463;28;20048;-88
2022/01/09 11:22:21;;;;;;;12.98;3.72;;;6.70;99.90;;;;;;5086787;28;20043;-88
2022/01/09 11:25:21;;;;;;;15.10;3.80;;;6.80;99.90;;;;;;5064421;28;20085;-90
2022/01/09 11:27:51;;;;;;;14.13;3.30;;;6.90;99.90;;;;;;5074185;28;20029;-91
2022/01/09 11:30:31;;;;;;;17.30;3.65;;;7.00;99.90;;;;;;5073284;28;20123;-88
2022/01/09 11:33:26;;;;;;;15.98;2.83;;;7.10;99.90;;;;;;5072985;28;20037;-89
2022/01/09 11:36:10;;;;;;;14.43;2.67;;;7.20;99.90;;;;;;5055375;28;20480;-91
2022/01/09 11:38:54;;;;;;;14.43;2.95;;;7.30;99.90;;;;;;5072729;28;20033;-92
2022/01/09 11:41:25;;;;;;;18.80;2.25;;;7.40;99.90;;;;;;5074043;28;20091;-91
2022/01/09 11:43:55;;;;;;;10.68;1.92;;;7.40;99.90;;;;;;5072484;28;20028;-88
2022/01/09 11:46:22;;;;;;;9.75;1.75;;;7.40;99.90;;;;;;5072869;28;20044;-90
2022/01/09 11:48:51;;;;;;;11.05;2.65;;;7.40;99.90;;;;;;5072862;28;20036;-89
2022/01/09 11:51:20;;;;;;;11.90;2.67;;;7.40;99.90;;;;;;5064225;28;20100;-91
2022/01/09 11:54:14;;;;;;;13.68;2.30;;;7.30;99.90;;;;;;5045500;28;20050;-94
2022/01/09 11:56:44;;;;;;;16.83;2.55;;;7.30;99.90;;;;;;5055981;28;20058;-91
2022/01/09 11:59:39;;;;;;;12.75;2.47;;;7.30;99.90;;;;;;5069892;28;20045;-91
2022/01/09 12:02:06;;;;;;;11.32;2.47;;;7.30;99.90;;;;;;5055782;28;20136;-90
2022/01/09 12:04:32;;;;;;;15.27;2.85;;;7.40;99.90;;;;;;5055885;28;20222;-90
2022/01/09 12:07:03;;;;;;;17.05;2.80;;;7.40;99.90;;;;;;5055467;28;20041;-90
2022/01/09 12:09:36;;;;;;;;;;;7.50;99.90;;;;;;5056819;28;20051;-91
2022/01/09 12:12:15;;;;;;;16.85;3.35;;;7.60;99.90;;;;;;5073043;28;19916;-91
2022/01/09 12:15:04;;;;;;;14.43;2.65;;;7.60;99.90;;;;;;5056166;28;20044;-90
2022/01/09 12:17:39;;;;;;;18.60;3.60;;;7.60;99.90;;;;;;5057768;28;20033;-90
2022/01/09 12:20:14;;;;;;;11.38;3.13;;;7.60;99.90;;;;;;5057758;28;20061;-89
2022/01/09 12:25:23;;;;;;;11.27;1.98;;;7.60;99.90;;;;;;5057498;28;20033;-90
2022/01/09 12:27:54;;;;;;;18.10;2.72;;;7.60;99.90;;;;;;5057585;28;20465;-90
2022/01/09 12:30:54;;;;;;;10.70;2.70;;;7.60;99.90;;;;;;5056136;28;20057;-91
2022/01/09 12:33:31;;;;;;;12.75;2.50;;;7.50;99.90;;;;;;5056494;28;20061;-88
2022/01/09 12:36:03;;;;;;;13.57;3.17;;;7.50;99.90;;;;;;5055590;28;20048;-88
2022/01/09 12:38:30;;;;;;;13.25;2.53;;;7.50;99.90;;;;;;5055822;28;20091;-88
2022/01/09 12:41:17;;;;;;;10.23;2.55;;;7.50;99.90;;;;;;5055505;28;20124;-88
2022/01/09 12:43:43;;;;;;;16.08;2.88;;;7.60;99.90;;;;;;5056932;28;20044;-89
2022/01/09 12:46:14;;;;;;;16.30;2.80;;;7.70;99.90;;;;;;5055771;28;20045;-89
2022/01/09 12:48:40;;;;;;;10.18;2.20;;;7.80;99.90;;;;;;5064197;28;20040;-88
2022/01/09 12:51:12;;;;;;;11.35;2.60;;;8.00;99.90;;;;;;5071696;28;20614;-87
2022/01/09 12:53:49;;;;;;;13.07;2.42;;;8.00;99.90;;;;;;5073393;28;20025;-87
2022/01/09 12:56:17;;;;;;;17.80;2.42;;;8.10;99.90;;;;;;5058074;28;20043;-88
2022/01/09 12:58:42;;;;;;;15.55;2.45;;;8.10;99.90;;;;;;5071874;28;20021;-88
2022/01/09 13:01:17;;;;;;;14.70;3.03;;;8.10;99.90;;;;;;5074581;28;20047;-88
2022/01/09 13:03:45;;;;;;;15.10;2.50;;;8.10;99.90;;;;;;5073562;28;20029;-88
2022/01/09 13:06:13;;;;;;;13.10;3.13;;;8.20;99.90;;;;;;5071510;28;20453;-88
2022/01/09 13:08:49;;;;;;;11.60;2.92;;;8.20;99.90;;;;;;5071373;28;20516;-86
2022/01/09 13:11:18;;;;;;;13.80;3.22;;;8.20;99.90;;;;;;5094646;28;20032;-88
2022/01/09 13:13:46;;;;;;;16.90;2.70;;;8.30;99.90;;;;;;5077144;28;20028;-88
2022/01/09 13:16:14;;;;;;;11.98;2.30;;;8.40;99.90;;;;;;5078662;28;20036;-92
2022/01/09 13:18:49;;;;;;;14.80;2.50;;;8.40;99.90;;;;;;5092599;28;20062;-88
2022/01/09 13:21:19;;;;;;;14.35;2.55;;;8.40;99.90;;;;;;5091924;28;20372;-88
2022/01/09 13:24:03;;;;;;;14.80;2.70;;;8.50;99.90;;;;;;5084139;28;20115;-88
2022/01/09 13:26:38;;;;;;;12.60;2.80;;;8.50;99.90;;;;;;5086549;28;20028;-88
2022/01/09 13:29:07;;;;;;;10.63;2.65;;;8.60;99.90;;;;;;5070228;28;20032;-88
2022/01/09 13:31:38;;;;;;;14.00;3.30;;;8.60;99.90;;;;;;5074426;28;20024;-89
2022/01/09 13:34:06;;;;;;;14.48;2.40;;;8.60;99.90;;;;;;5071651;28;20032;-88
2022/01/09 13:36:45;;;;;;;13.23;2.30;;;8.60;99.90;;;;;;5077126;28;20032;-88
2022/01/09 13:39:19;;;;;;;16.13;3.10;;;8.60;99.90;;;;;;5073629;28;20052;-89
2022/01/09 13:42:02;;;;;;;15.52;3.63;;;8.70;99.90;;;;;;5074849;28;20035;-89
2022/01/09 13:44:28;;;;;;;15.05;3.10;;;8.80;99.90;;;;;;5094929;28;20123;-91
2022/01/09 13:47:12;;;;;;;14.43;2.63;;;8.90;99.90;;;;;;5093991;28;20036;-87